sensor_id;sensor_type;location;lat;lon;timestamp;P1;durP1;ratioP1;P2;durP2;ratioP2
80215;SDS011;69532;37.974;23.708;2023-05-13T00:01:17;6.63;;;3.88;;
80215;SDS011;69532;37.974;23.708;2023-05-13T00:03:43;6.03;;;3.63;;
80215;SDS011;69532;37.974;23.708;2023-05-13T00:06:08;7.15;;;3.70;;
80215;SDS011;69532;37.974;23.708;2023-05-13T00:08:34;6.63;;;3.40;;
80215;SDS011;69532;37.974;23.708;2023-05-13T00:11:00;7.22;;;3.70;;
80215;SDS011;69532;37.974;23.708;2023-05-13T00:13:26;6.68;;;3.47;;
80215;SDS011;69532;37.974;23.708;2023-05-13T00:15:52;7.03;;;3.85;;
80215;SDS011;69532;37.974;23.708;2023-05-13T00:18:17;6.55;;;3.90;;
80215;SDS011;69532;37.974;23.708;2023-05-13T00:20:43;6.22;;;3.40;;
80215;SDS011;69532;37.974;23.708;2023-05-13T00:23:09;7.13;;;3.65;;
80215;SDS011;69532;37.974;23.708;2023-05-13T00:25:35;6.90;;;3.80;;
80215;SDS011;69532;37.974;23.708;2023-05-13T00:28:01;5.68;;;3.30;;
80215;SDS011;69532;37.974;23.708;2023-05-13T00:30:27;6.03;;;3.55;;
80215;SDS011;69532;37.974;23.708;2023-05-13T00:32:53;6.70;;;3.60;;
80215;SDS011;69532;37.974;23.708;2023-05-13T00:35:19;5.75;;;3.28;;
80215;SDS011;69532;37.974;23.708;2023-05-13T00:37:44;7.30;;;3.90;;
80215;SDS011;69532;37.974;23.708;2023-05-13T00:40:14;6.57;;;3.38;;
80215;SDS011;69532;37.974;23.708;2023-05-13T00:42:45;7.00;;;4.00;;
80215;SDS011;69532;37.974;23.708;2023-05-13T00:45:11;7.03;;;3.80;;
80215;SDS011;69532;37.974;23.708;2023-05-13T00:47:37;6.72;;;3.50;;
80215;SDS011;69532;37.974;23.708;2023-05-13T00:50:05;5.95;;;3.28;;
80215;SDS011;69532;37.974;23.708;2023-05-13T00:52:31;6.70;;;3.47;;
80215;SDS011;69532;37.974;23.708;2023-05-13T00:54:58;6.40;;;3.80;;
80215;SDS011;69532;37.974;23.708;2023-05-13T00:57:23;6.78;;;3.58;;
80215;SDS011;69532;37.974;23.708;2023-05-13T00:59:49;6.18;;;3.20;;
80215;SDS011;69532;37.974;23.708;2023-05-13T01:02:19;6.10;;;3.30;;
80215;SDS011;69532;37.974;23.708;2023-05-13T01:10:46;6.10;;;3.38;;
80215;SDS011;69532;37.974;23.708;2023-05-13T01:13:25;6.10;;;3.28;;
80215;SDS011;69532;37.974;23.708;2023-05-13T01:16:01;7.15;;;3.35;;
80215;SDS011;69532;37.974;23.708;2023-05-13T01:18:39;5.28;;;2.88;;
80215;SDS011;69532;37.974;23.708;2023-05-13T01:21:08;5.95;;;3.28;;
80215;SDS011;69532;37.974;23.708;2023-05-13T01:23:36;6.00;;;3.53;;
80215;SDS011;69532;37.974;23.708;2023-05-13T01:26:01;6.70;;;3.15;;
80215;SDS011;69532;37.974;23.708;2023-05-13T01:28:27;8.32;;;3.42;;
80215;SDS011;69532;37.974;23.708;2023-05-13T01:30:53;7.25;;;3.47;;
80215;SDS011;69532;37.974;23.708;2023-05-13T01:33:21;5.85;;;3.10;;
80215;SDS011;69532;37.974;23.708;2023-05-13T01:35:48;6.45;;;3.13;;
80215;SDS011;69532;37.974;23.708;2023-05-13T01:38:16;6.35;;;3.20;;
80215;SDS011;69532;37.974;23.708;2023-05-13T01:40:42;5.35;;;2.97;;
80215;SDS011;69532;37.974;23.708;2023-05-13T01:43:08;6.00;;;3.20;;
80215;SDS011;69532;37.974;23.708;2023-05-13T01:45:34;6.60;;;3.40;;
80215;SDS011;69532;37.974;23.708;2023-05-13T01:48:00;6.50;;;3.42;;
80215;SDS011;69532;37.974;23.708;2023-05-13T01:50:25;5.20;;;3.00;;
80215;SDS011;69532;37.974;23.708;2023-05-13T01:52:51;6.50;;;3.08;;
80215;SDS011;69532;37.974;23.708;2023-05-13T01:55:17;6.72;;;2.85;;
80215;SDS011;69532;37.974;23.708;2023-05-13T01:57:43;7.57;;;3.10;;
80215;SDS011;69532;37.974;23.708;2023-05-13T02:00:09;6.60;;;3.30;;
80215;SDS011;69532;37.974;23.708;2023-05-13T02:02:35;5.75;;;3.00;;
80215;SDS011;69532;37.974;23.708;2023-05-13T02:05:00;6.32;;;2.95;;
80215;SDS011;69532;37.974;23.708;2023-05-13T02:07:26;5.85;;;2.97;;
80215;SDS011;69532;37.974;23.708;2023-05-13T02:09:52;5.28;;;2.83;;
80215;SDS011;69532;37.974;23.708;2023-05-13T02:12:24;6.38;;;3.05;;
80215;SDS011;69532;37.974;23.708;2023-05-13T02:14:51;5.45;;;2.83;;
80215;SDS011;69532;37.974;23.708;2023-05-13T02:17:18;6.10;;;3.08;;
80215;SDS011;69532;37.974;23.708;2023-05-13T02:19:44;6.68;;;3.60;;
80215;SDS011;69532;37.974;23.708;2023-05-13T02:22:09;6.00;;;2.88;;
80215;SDS011;69532;37.974;23.708;2023-05-13T02:24:35;5.63;;;2.90;;
80215;SDS011;69532;37.974;23.708;2023-05-13T02:27:04;5.55;;;2.92;;
80215;SDS011;69532;37.974;23.708;2023-05-13T02:29:31;6.43;;;2.80;;
80215;SDS011;69532;37.974;23.708;2023-05-13T02:31:57;6.13;;;3.00;;
80215;SDS011;69532;37.974;23.708;2023-05-13T02:34:23;5.25;;;2.90;;
80215;SDS011;69532;37.974;23.708;2023-05-13T02:36:48;5.22;;;2.70;;
80215;SDS011;69532;37.974;23.708;2023-05-13T02:39:14;5.47;;;2.90;;
80215;SDS011;69532;37.974;23.708;2023-05-13T02:41:40;5.53;;;2.90;;
80215;SDS011;69532;37.974;23.708;2023-05-13T02:44:06;6.05;;;2.80;;
80215;SDS011;69532;37.974;23.708;2023-05-13T02:46:31;5.72;;;3.00;;
80215;SDS011;69532;37.974;23.708;2023-05-13T02:48:57;5.88;;;2.78;;
80215;SDS011;69532;37.974;23.708;2023-05-13T02:51:23;5.55;;;2.90;;
80215;SDS011;69532;37.974;23.708;2023-05-13T02:53:49;5.95;;;2.97;;
80215;SDS011;69532;37.974;23.708;2023-05-13T02:56:15;5.50;;;2.70;;
80215;SDS011;69532;37.974;23.708;2023-05-13T02:58:41;6.88;;;2.88;;
80215;SDS011;69532;37.974;23.708;2023-05-13T03:01:07;6.30;;;2.50;;
80215;SDS011;69532;37.974;23.708;2023-05-13T03:03:32;6.57;;;2.97;;
80215;SDS011;69532;37.974;23.708;2023-05-13T03:05:58;5.35;;;2.72;;
80215;SDS011;69532;37.974;23.708;2023-05-13T03:08:24;5.25;;;2.80;;
80215;SDS011;69532;37.974;23.708;2023-05-13T03:10:50;5.35;;;2.70;;
80215;SDS011;69532;37.974;23.708;2023-05-13T03:13:16;5.43;;;2.58;;
80215;SDS011;69532;37.974;23.708;2023-05-13T03:15:41;6.70;;;2.70;;
80215;SDS011;69532;37.974;23.708;2023-05-13T03:18:07;6.32;;;3.05;;
80215;SDS011;69532;37.974;23.708;2023-05-13T03:20:33;5.25;;;2.65;;
80215;SDS011;69532;37.974;23.708;2023-05-13T03:22:58;4.78;;;2.33;;
80215;SDS011;69532;37.974;23.708;2023-05-13T03:25:24;6.13;;;2.83;;
80215;SDS011;69532;37.974;23.708;2023-05-13T03:27:50;5.38;;;2.53;;
80215;SDS011;69532;37.974;23.708;2023-05-13T03:30:15;5.90;;;2.70;;
80215;SDS011;69532;37.974;23.708;2023-05-13T03:32:41;5.78;;;2.90;;
80215;SDS011;69532;37.974;23.708;2023-05-13T03:35:07;4.88;;;2.55;;
80215;SDS011;69532;37.974;23.708;2023-05-13T03:37:33;6.75;;;2.50;;
80215;SDS011;69532;37.974;23.708;2023-05-13T03:39:59;5.53;;;2.95;;
80215;SDS011;69532;37.974;23.708;2023-05-13T03:42:25;5.63;;;2.83;;
80215;SDS011;69532;37.974;23.708;2023-05-13T03:44:50;5.75;;;2.63;;
80215;SDS011;69532;37.974;23.708;2023-05-13T03:47:16;5.88;;;2.63;;
80215;SDS011;69532;37.974;23.708;2023-05-13T03:49:42;4.65;;;2.40;;
80215;SDS011;69532;37.974;23.708;2023-05-13T03:52:08;6.63;;;2.70;;
80215;SDS011;69532;37.974;23.708;2023-05-13T03:54:33;6.15;;;2.90;;
80215;SDS011;69532;37.974;23.708;2023-05-13T03:56:59;5.78;;;2.70;;
80215;SDS011;69532;37.974;23.708;2023-05-13T03:59:25;4.78;;;2.47;;
80215;SDS011;69532;37.974;23.708;2023-05-13T04:01:51;5.07;;;2.60;;
80215;SDS011;69532;37.974;23.708;2023-05-13T04:04:16;5.35;;;2.78;;
80215;SDS011;69532;37.974;23.708;2023-05-13T04:06:42;6.35;;;2.72;;
80215;SDS011;69532;37.974;23.708;2023-05-13T04:09:08;5.97;;;2.85;;
80215;SDS011;69532;37.974;23.708;2023-05-13T04:11:33;5.50;;;2.65;;
80215;SDS011;69532;37.974;23.708;2023-05-13T04:14:00;5.00;;;2.42;;
80215;SDS011;69532;37.974;23.708;2023-05-13T04:16:25;6.38;;;2.65;;
80215;SDS011;69532;37.974;23.708;2023-05-13T04:18:51;6.57;;;2.90;;
80215;SDS011;69532;37.974;23.708;2023-05-13T04:21:17;5.45;;;2.83;;
80215;SDS011;69532;37.974;23.708;2023-05-13T04:23:43;5.47;;;2.60;;
80215;SDS011;69532;37.974;23.708;2023-05-13T04:26:08;6.30;;;2.75;;
80215;SDS011;69532;37.974;23.708;2023-05-13T04:28:34;5.30;;;2.70;;
80215;SDS011;69532;37.974;23.708;2023-05-13T04:31:00;5.60;;;3.13;;
80215;SDS011;69532;37.974;23.708;2023-05-13T04:33:26;5.55;;;2.70;;
80215;SDS011;69532;37.974;23.708;2023-05-13T04:35:52;5.65;;;2.58;;
80215;SDS011;69532;37.974;23.708;2023-05-13T04:38:18;6.60;;;2.80;;
80215;SDS011;69532;37.974;23.708;2023-05-13T04:40:43;5.53;;;2.40;;
80215;SDS011;69532;37.974;23.708;2023-05-13T04:43:12;4.90;;;2.40;;
80215;SDS011;69532;37.974;23.708;2023-05-13T04:45:38;5.28;;;2.60;;
80215;SDS011;69532;37.974;23.708;2023-05-13T04:48:04;6.60;;;2.95;;
80215;SDS011;69532;37.974;23.708;2023-05-13T04:50:30;5.22;;;2.60;;
80215;SDS011;69532;37.974;23.708;2023-05-13T04:52:56;5.70;;;2.70;;
80215;SDS011;69532;37.974;23.708;2023-05-13T04:55:22;5.10;;;2.40;;
80215;SDS011;69532;37.974;23.708;2023-05-13T04:57:48;5.43;;;2.85;;
80215;SDS011;69532;37.974;23.708;2023-05-13T05:00:14;5.25;;;2.60;;
80215;SDS011;69532;37.974;23.708;2023-05-13T05:02:40;5.15;;;2.67;;
80215;SDS011;69532;37.974;23.708;2023-05-13T05:05:06;6.68;;;3.00;;
80215;SDS011;69532;37.974;23.708;2023-05-13T05:07:32;6.25;;;3.08;;
80215;SDS011;69532;37.974;23.708;2023-05-13T05:09:58;5.13;;;2.63;;
80215;SDS011;69532;37.974;23.708;2023-05-13T05:12:24;6.22;;;2.78;;
80215;SDS011;69532;37.974;23.708;2023-05-13T05:14:50;5.35;;;2.42;;
80215;SDS011;69532;37.974;23.708;2023-05-13T05:17:16;5.38;;;2.33;;
80215;SDS011;69532;37.974;23.708;2023-05-13T05:19:41;7.63;;;3.10;;
80215;SDS011;69532;37.974;23.708;2023-05-13T05:22:07;6.25;;;2.65;;
80215;SDS011;69532;37.974;23.708;2023-05-13T05:24:33;6.35;;;2.65;;
80215;SDS011;69532;37.974;23.708;2023-05-13T05:26:58;5.97;;;2.72;;
80215;SDS011;69532;37.974;23.708;2023-05-13T05:29:24;5.82;;;2.55;;
80215;SDS011;69532;37.974;23.708;2023-05-13T05:31:50;5.38;;;2.40;;
80215;SDS011;69532;37.974;23.708;2023-05-13T05:34:16;5.30;;;2.80;;
80215;SDS011;69532;37.974;23.708;2023-05-13T05:36:42;6.22;;;2.53;;
80215;SDS011;69532;37.974;23.708;2023-05-13T05:39:07;5.75;;;2.50;;
80215;SDS011;69532;37.974;23.708;2023-05-13T05:41:33;5.82;;;2.55;;
80215;SDS011;69532;37.974;23.708;2023-05-13T05:43:59;5.78;;;2.60;;
80215;SDS011;69532;37.974;23.708;2023-05-13T05:46:25;6.10;;;2.78;;
80215;SDS011;69532;37.974;23.708;2023-05-13T05:48:50;6.63;;;2.80;;
80215;SDS011;69532;37.974;23.708;2023-05-13T05:51:16;5.43;;;2.67;;
80215;SDS011;69532;37.974;23.708;2023-05-13T05:53:42;5.63;;;2.70;;
80215;SDS011;69532;37.974;23.708;2023-05-13T05:56:08;5.53;;;2.47;;
80215;SDS011;69532;37.974;23.708;2023-05-13T05:58:34;5.40;;;2.47;;
80215;SDS011;69532;37.974;23.708;2023-05-13T06:01:00;5.72;;;2.60;;
80215;SDS011;69532;37.974;23.708;2023-05-13T06:03:26;7.28;;;2.75;;
80215;SDS011;69532;37.974;23.708;2023-05-13T06:05:52;6.43;;;2.70;;
80215;SDS011;69532;37.974;23.708;2023-05-13T06:08:18;5.15;;;2.83;;
80215;SDS011;69532;37.974;23.708;2023-05-13T06:10:44;5.88;;;2.60;;
80215;SDS011;69532;37.974;23.708;2023-05-13T06:13:10;5.60;;;2.72;;
80215;SDS011;69532;37.974;23.708;2023-05-13T06:15:39;5.78;;;2.50;;
80215;SDS011;69532;37.974;23.708;2023-05-13T06:18:04;7.75;;;2.88;;
80215;SDS011;69532;37.974;23.708;2023-05-13T06:20:30;5.13;;;2.17;;
80215;SDS011;69532;37.974;23.708;2023-05-13T06:22:56;5.22;;;2.47;;
80215;SDS011;69532;37.974;23.708;2023-05-13T06:25:22;7.18;;;2.53;;
80215;SDS011;69532;37.974;23.708;2023-05-13T06:27:48;4.80;;;2.55;;
80215;SDS011;69532;37.974;23.708;2023-05-13T06:30:13;5.43;;;2.40;;
80215;SDS011;69532;37.974;23.708;2023-05-13T06:32:39;6.07;;;2.80;;
80215;SDS011;69532;37.974;23.708;2023-05-13T06:35:05;5.43;;;2.58;;
80215;SDS011;69532;37.974;23.708;2023-05-13T06:37:31;5.45;;;2.70;;
80215;SDS011;69532;37.974;23.708;2023-05-13T06:39:57;5.50;;;2.55;;
80215;SDS011;69532;37.974;23.708;2023-05-13T06:42:24;6.43;;;2.70;;
80215;SDS011;69532;37.974;23.708;2023-05-13T06:44:49;5.55;;;2.55;;
80215;SDS011;69532;37.974;23.708;2023-05-13T06:47:16;5.72;;;2.45;;
80215;SDS011;69532;37.974;23.708;2023-05-13T06:49:41;5.82;;;2.40;;
80215;SDS011;69532;37.974;23.708;2023-05-13T06:52:10;6.03;;;2.83;;
80215;SDS011;69532;37.974;23.708;2023-05-13T06:54:36;5.50;;;2.45;;
80215;SDS011;69532;37.974;23.708;2023-05-13T06:57:02;5.15;;;2.60;;
80215;SDS011;69532;37.974;23.708;2023-05-13T06:59:31;5.47;;;2.55;;
80215;SDS011;69532;37.974;23.708;2023-05-13T07:01:57;5.80;;;2.40;;
80215;SDS011;69532;37.974;23.708;2023-05-13T07:04:23;6.38;;;2.90;;
80215;SDS011;69532;37.974;23.708;2023-05-13T07:06:48;5.00;;;2.30;;
80215;SDS011;69532;37.974;23.708;2023-05-13T07:09:15;5.30;;;2.40;;
80215;SDS011;69532;37.974;23.708;2023-05-13T07:11:41;4.90;;;2.53;;
80215;SDS011;69532;37.974;23.708;2023-05-13T07:14:07;5.72;;;2.65;;
80215;SDS011;69532;37.974;23.708;2023-05-13T07:16:32;4.75;;;2.13;;
80215;SDS011;69532;37.974;23.708;2023-05-13T07:18:58;5.72;;;2.30;;
80215;SDS011;69532;37.974;23.708;2023-05-13T07:21:24;5.85;;;2.33;;
80215;SDS011;69532;37.974;23.708;2023-05-13T07:23:49;5.05;;;2.58;;
80215;SDS011;69532;37.974;23.708;2023-05-13T07:26:15;4.78;;;2.33;;
80215;SDS011;69532;37.974;23.708;2023-05-13T07:28:41;4.60;;;2.42;;
80215;SDS011;69532;37.974;23.708;2023-05-13T07:31:07;5.25;;;2.30;;
80215;SDS011;69532;37.974;23.708;2023-05-13T07:33:34;6.47;;;2.80;;
80215;SDS011;69532;37.974;23.708;2023-05-13T07:36:00;4.88;;;2.35;;
80215;SDS011;69532;37.974;23.708;2023-05-13T07:38:25;5.63;;;2.55;;
80215;SDS011;69532;37.974;23.708;2023-05-13T07:40:51;4.82;;;2.40;;
80215;SDS011;69532;37.974;23.708;2023-05-13T07:43:17;6.13;;;2.60;;
80215;SDS011;69532;37.974;23.708;2023-05-13T07:45:48;5.65;;;2.60;;
80215;SDS011;69532;37.974;23.708;2023-05-13T07:48:14;6.43;;;2.67;;
80215;SDS011;69532;37.974;23.708;2023-05-13T07:50:42;5.18;;;2.30;;
80215;SDS011;69532;37.974;23.708;2023-05-13T07:53:11;6.07;;;2.80;;
80215;SDS011;69532;37.974;23.708;2023-05-13T07:55:37;6.10;;;2.97;;
80215;SDS011;69532;37.974;23.708;2023-05-13T07:58:02;5.22;;;2.60;;
80215;SDS011;69532;37.974;23.708;2023-05-13T08:00:28;7.20;;;2.85;;
80215;SDS011;69532;37.974;23.708;2023-05-13T08:02:54;5.95;;;2.80;;
80215;SDS011;69532;37.974;23.708;2023-05-13T08:05:20;5.35;;;2.70;;
80215;SDS011;69532;37.974;23.708;2023-05-13T08:07:46;5.53;;;3.00;;
80215;SDS011;69532;37.974;23.708;2023-05-13T08:10:11;5.75;;;2.90;;
80215;SDS011;69532;37.974;23.708;2023-05-13T08:12:37;6.32;;;2.70;;
80215;SDS011;69532;37.974;23.708;2023-05-13T08:15:04;5.28;;;2.85;;
80215;SDS011;69532;37.974;23.708;2023-05-13T08:17:31;4.97;;;2.72;;
80215;SDS011;69532;37.974;23.708;2023-05-13T08:19:57;7.78;;;3.08;;
80215;SDS011;69532;37.974;23.708;2023-05-13T08:22:24;6.25;;;2.80;;
80215;SDS011;69532;37.974;23.708;2023-05-13T08:24:50;5.50;;;2.83;;
80215;SDS011;69532;37.974;23.708;2023-05-13T08:27:16;6.43;;;2.97;;
80215;SDS011;69532;37.974;23.708;2023-05-13T08:29:41;5.90;;;2.80;;
80215;SDS011;69532;37.974;23.708;2023-05-13T08:32:07;5.45;;;2.78;;
80215;SDS011;69532;37.974;23.708;2023-05-13T08:34:33;6.70;;;2.80;;
80215;SDS011;69532;37.974;23.708;2023-05-13T08:36:58;6.05;;;2.88;;
80215;SDS011;69532;37.974;23.708;2023-05-13T08:39:24;5.60;;;2.83;;
80215;SDS011;69532;37.974;23.708;2023-05-13T08:41:50;6.65;;;2.95;;
80215;SDS011;69532;37.974;23.708;2023-05-13T08:44:20;6.18;;;2.95;;
80215;SDS011;69532;37.974;23.708;2023-05-13T08:46:53;5.65;;;2.70;;
80215;SDS011;69532;37.974;23.708;2023-05-13T08:49:47;6.70;;;2.83;;
80215;SDS011;69532;37.974;23.708;2023-05-13T08:52:13;5.80;;;2.78;;
80215;SDS011;69532;37.974;23.708;2023-05-13T08:54:39;6.68;;;3.10;;
80215;SDS011;69532;37.974;23.708;2023-05-13T08:57:07;5.55;;;3.00;;
80215;SDS011;69532;37.974;23.708;2023-05-13T08:59:32;7.35;;;3.10;;
80215;SDS011;69532;37.974;23.708;2023-05-13T09:01:58;6.82;;;2.72;;
80215;SDS011;69532;37.974;23.708;2023-05-13T09:04:27;7.35;;;2.92;;
80215;SDS011;69532;37.974;23.708;2023-05-13T09:06:53;7.18;;;2.90;;
80215;SDS011;69532;37.974;23.708;2023-05-13T09:09:19;5.50;;;2.53;;
80215;SDS011;69532;37.974;23.708;2023-05-13T09:11:48;7.93;;;2.92;;
80215;SDS011;69532;37.974;23.708;2023-05-13T09:14:17;6.80;;;2.80;;
80215;SDS011;69532;37.974;23.708;2023-05-13T09:16:43;5.80;;;2.85;;
80215;SDS011;69532;37.974;23.708;2023-05-13T09:19:09;5.20;;;2.75;;
80215;SDS011;69532;37.974;23.708;2023-05-13T09:21:35;6.90;;;3.13;;
80215;SDS011;69532;37.974;23.708;2023-05-13T09:24:05;6.03;;;2.83;;
80215;SDS011;69532;37.974;23.708;2023-05-13T09:26:42;6.50;;;3.13;;
80215;SDS011;69532;37.974;23.708;2023-05-13T09:31:43;5.85;;;2.88;;
80215;SDS011;69532;37.974;23.708;2023-05-13T09:34:10;6.43;;;3.03;;
80215;SDS011;69532;37.974;23.708;2023-05-13T09:36:36;6.15;;;2.88;;
80215;SDS011;69532;37.974;23.708;2023-05-13T09:39:02;6.78;;;3.10;;
80215;SDS011;69532;37.974;23.708;2023-05-13T09:41:29;6.00;;;3.05;;
80215;SDS011;69532;37.974;23.708;2023-05-13T09:43:56;7.10;;;3.20;;
80215;SDS011;69532;37.974;23.708;2023-05-13T09:46:23;5.63;;;2.75;;
80215;SDS011;69532;37.974;23.708;2023-05-13T09:48:49;5.50;;;2.85;;
80215;SDS011;69532;37.974;23.708;2023-05-13T09:51:24;6.10;;;3.00;;
80215;SDS011;69532;37.974;23.708;2023-05-13T09:53:51;5.50;;;2.67;;
80215;SDS011;69532;37.974;23.708;2023-05-13T09:56:18;6.78;;;3.50;;
80215;SDS011;69532;37.974;23.708;2023-05-13T09:58:55;7.35;;;3.05;;
80215;SDS011;69532;37.974;23.708;2023-05-13T10:01:20;5.95;;;3.33;;
80215;SDS011;69532;37.974;23.708;2023-05-13T10:03:47;4.70;;;2.67;;
80215;SDS011;69532;37.974;23.708;2023-05-13T10:06:16;7.22;;;3.17;;
80215;SDS011;69532;37.974;23.708;2023-05-13T10:08:44;6.75;;;2.90;;
80215;SDS011;69532;37.974;23.708;2023-05-13T10:11:11;5.57;;;3.00;;
80215;SDS011;69532;37.974;23.708;2023-05-13T10:13:39;5.93;;;3.00;;
80215;SDS011;69532;37.974;23.708;2023-05-13T10:16:07;5.90;;;3.20;;
80215;SDS011;69532;37.974;23.708;2023-05-13T10:18:33;6.90;;;3.20;;
80215;SDS011;69532;37.974;23.708;2023-05-13T10:21:00;7.28;;;3.38;;
80215;SDS011;69532;37.974;23.708;2023-05-13T10:23:27;6.35;;;3.28;;
80215;SDS011;69532;37.974;23.708;2023-05-13T10:25:53;6.53;;;3.03;;
80215;SDS011;69532;37.974;23.708;2023-05-13T10:28:20;6.57;;;3.22;;
80215;SDS011;69532;37.974;23.708;2023-05-13T10:30:48;7.45;;;3.10;;
80215;SDS011;69532;37.974;23.708;2023-05-13T10:33:15;6.35;;;2.97;;
80215;SDS011;69532;37.974;23.708;2023-05-13T10:35:41;6.72;;;3.13;;
80215;SDS011;69532;37.974;23.708;2023-05-13T10:41:21;5.95;;;2.92;;
80215;SDS011;69532;37.974;23.708;2023-05-13T10:44:09;7.30;;;3.15;;
80215;SDS011;69532;37.974;23.708;2023-05-13T10:46:35;6.18;;;3.20;;
80215;SDS011;69532;37.974;23.708;2023-05-13T10:49:03;7.70;;;3.17;;
80215;SDS011;69532;37.974;23.708;2023-05-13T10:51:29;6.75;;;3.40;;
80215;SDS011;69532;37.974;23.708;2023-05-13T10:53:56;6.90;;;3.33;;
80215;SDS011;69532;37.974;23.708;2023-05-13T10:56:23;6.70;;;3.30;;
80215;SDS011;69532;37.974;23.708;2023-05-13T10:59:03;7.63;;;3.47;;
80215;SDS011;69532;37.974;23.708;2023-05-13T11:01:34;6.95;;;3.30;;
80215;SDS011;69532;37.974;23.708;2023-05-13T11:04:06;5.97;;;3.17;;
80215;SDS011;69532;37.974;23.708;2023-05-13T11:06:41;5.20;;;2.80;;
80215;SDS011;69532;37.974;23.708;2023-05-13T11:11:54;6.38;;;3.22;;
80215;SDS011;69532;37.974;23.708;2023-05-13T11:14:22;6.60;;;3.17;;
80215;SDS011;69532;37.974;23.708;2023-05-13T11:19:34;5.55;;;2.92;;
80215;SDS011;69532;37.974;23.708;2023-05-13T11:22:08;8.13;;;3.33;;
80215;SDS011;69532;37.974;23.708;2023-05-13T11:24:35;7.88;;;2.95;;
80215;SDS011;69532;37.974;23.708;2023-05-13T11:27:17;6.63;;;3.15;;
80215;SDS011;69532;37.974;23.708;2023-05-13T11:30:03;5.80;;;2.72;;
80215;SDS011;69532;37.974;23.708;2023-05-13T11:35:21;6.38;;;3.10;;
80215;SDS011;69532;37.974;23.708;2023-05-13T11:40:24;7.07;;;2.72;;
80215;SDS011;69532;37.974;23.708;2023-05-13T11:42:50;5.82;;;2.83;;
80215;SDS011;69532;37.974;23.708;2023-05-13T11:45:17;6.10;;;3.03;;
80215;SDS011;69532;37.974;23.708;2023-05-13T11:47:44;5.75;;;2.88;;
80215;SDS011;69532;37.974;23.708;2023-05-13T11:50:19;6.82;;;3.13;;
80215;SDS011;69532;37.974;23.708;2023-05-13T11:52:56;5.63;;;3.15;;
80215;SDS011;69532;37.974;23.708;2023-05-13T11:55:31;7.43;;;3.10;;
80215;SDS011;69532;37.974;23.708;2023-05-13T11:58:00;6.40;;;3.33;;
80215;SDS011;69532;37.974;23.708;2023-05-13T12:00:28;7.00;;;3.25;;
80215;SDS011;69532;37.974;23.708;2023-05-13T12:02:55;7.05;;;3.00;;
80215;SDS011;69532;37.974;23.708;2023-05-13T12:05:22;6.25;;;3.03;;
80215;SDS011;69532;37.974;23.708;2023-05-13T12:07:48;6.00;;;3.10;;
80215;SDS011;69532;37.974;23.708;2023-05-13T12:10:15;7.07;;;2.95;;
80215;SDS011;69532;37.974;23.708;2023-05-13T12:12:41;6.85;;;3.00;;
80215;SDS011;69532;37.974;23.708;2023-05-13T12:15:10;6.90;;;2.90;;
80215;SDS011;69532;37.974;23.708;2023-05-13T12:17:43;5.97;;;3.17;;
80215;SDS011;69532;37.974;23.708;2023-05-13T12:28:12;6.63;;;3.00;;
80215;SDS011;69532;37.974;23.708;2023-05-13T12:30:51;5.40;;;2.85;;
80215;SDS011;69532;37.974;23.708;2023-05-13T12:33:18;6.65;;;2.75;;
80215;SDS011;69532;37.974;23.708;2023-05-13T12:35:52;5.93;;;3.13;;
80215;SDS011;69532;37.974;23.708;2023-05-13T12:38:38;6.10;;;3.00;;
80215;SDS011;69532;37.974;23.708;2023-05-13T12:41:10;5.57;;;3.03;;
80215;SDS011;69532;37.974;23.708;2023-05-13T12:43:39;5.97;;;2.85;;
80215;SDS011;69532;37.974;23.708;2023-05-13T12:46:05;7.20;;;3.00;;
80215;SDS011;69532;37.974;23.708;2023-05-13T12:48:34;5.43;;;2.67;;
80215;SDS011;69532;37.974;23.708;2023-05-13T12:51:01;6.63;;;3.25;;
80215;SDS011;69532;37.974;23.708;2023-05-13T12:53:26;5.68;;;2.80;;
80215;SDS011;69532;37.974;23.708;2023-05-13T12:55:52;5.90;;;3.08;;
80215;SDS011;69532;37.974;23.708;2023-05-13T12:58:18;6.22;;;3.25;;
80215;SDS011;69532;37.974;23.708;2023-05-13T13:00:44;5.53;;;3.08;;
80215;SDS011;69532;37.974;23.708;2023-05-13T13:03:10;6.32;;;2.97;;
80215;SDS011;69532;37.974;23.708;2023-05-13T13:05:35;6.72;;;3.45;;
80215;SDS011;69532;37.974;23.708;2023-05-13T13:08:01;5.75;;;3.17;;
80215;SDS011;69532;37.974;23.708;2023-05-13T13:10:29;6.00;;;2.70;;
80215;SDS011;69532;37.974;23.708;2023-05-13T13:12:55;5.57;;;2.72;;
80215;SDS011;69532;37.974;23.708;2023-05-13T13:15:20;6.60;;;3.00;;
80215;SDS011;69532;37.974;23.708;2023-05-13T13:17:46;6.10;;;2.80;;
80215;SDS011;69532;37.974;23.708;2023-05-13T13:20:12;7.10;;;3.00;;
80215;SDS011;69532;37.974;23.708;2023-05-13T13:22:38;6.75;;;2.83;;
80215;SDS011;69532;37.974;23.708;2023-05-13T13:25:04;6.28;;;2.95;;
80215;SDS011;69532;37.974;23.708;2023-05-13T13:27:30;6.50;;;3.10;;
80215;SDS011;69532;37.974;23.708;2023-05-13T13:29:57;5.97;;;2.97;;
80215;SDS011;69532;37.974;23.708;2023-05-13T13:32:23;6.50;;;3.10;;
80215;SDS011;69532;37.974;23.708;2023-05-13T13:34:48;5.90;;;2.80;;
80215;SDS011;69532;37.974;23.708;2023-05-13T13:37:14;5.03;;;2.70;;
80215;SDS011;69532;37.974;23.708;2023-05-13T13:39:40;6.13;;;2.50;;
80215;SDS011;69532;37.974;23.708;2023-05-13T13:42:06;5.72;;;2.90;;
80215;SDS011;69532;37.974;23.708;2023-05-13T13:44:32;6.18;;;2.75;;
80215;SDS011;69532;37.974;23.708;2023-05-13T13:46:59;6.80;;;2.83;;
80215;SDS011;69532;37.974;23.708;2023-05-13T13:49:25;5.53;;;2.80;;
80215;SDS011;69532;37.974;23.708;2023-05-13T13:51:51;4.70;;;2.45;;
80215;SDS011;69532;37.974;23.708;2023-05-13T13:54:17;5.03;;;2.60;;
80215;SDS011;69532;37.974;23.708;2023-05-13T13:56:43;5.55;;;2.80;;
80215;SDS011;69532;37.974;23.708;2023-05-13T13:59:08;6.68;;;3.15;;
80215;SDS011;69532;37.974;23.708;2023-05-13T14:01:34;6.97;;;2.92;;
80215;SDS011;69532;37.974;23.708;2023-05-13T14:04:13;6.40;;;2.80;;
80215;SDS011;69532;37.974;23.708;2023-05-13T14:06:39;5.45;;;2.72;;
80215;SDS011;69532;37.974;23.708;2023-05-13T14:09:06;6.03;;;2.80;;
80215;SDS011;69532;37.974;23.708;2023-05-13T14:11:34;5.30;;;2.53;;
80215;SDS011;69532;37.974;23.708;2023-05-13T14:14:00;7.20;;;3.20;;
80215;SDS011;69532;37.974;23.708;2023-05-13T14:16:25;5.63;;;2.88;;
80215;SDS011;69532;37.974;23.708;2023-05-13T14:18:51;6.18;;;2.80;;
80215;SDS011;69532;37.974;23.708;2023-05-13T14:21:17;4.88;;;2.55;;
80215;SDS011;69532;37.974;23.708;2023-05-13T14:23:43;5.55;;;2.80;;
80215;SDS011;69532;37.974;23.708;2023-05-13T14:26:08;5.25;;;2.90;;
80215;SDS011;69532;37.974;23.708;2023-05-13T14:28:39;5.88;;;2.80;;
80215;SDS011;69532;37.974;23.708;2023-05-13T14:31:06;5.82;;;3.20;;
80215;SDS011;69532;37.974;23.708;2023-05-13T14:33:31;5.88;;;2.80;;
80215;SDS011;69532;37.974;23.708;2023-05-13T14:35:57;5.85;;;2.85;;
80215;SDS011;69532;37.974;23.708;2023-05-13T14:38:23;6.00;;;2.92;;
80215;SDS011;69532;37.974;23.708;2023-05-13T14:40:49;7.07;;;2.78;;
80215;SDS011;69532;37.974;23.708;2023-05-13T14:43:14;5.90;;;2.60;;
80215;SDS011;69532;37.974;23.708;2023-05-13T14:45:40;6.43;;;2.72;;
80215;SDS011;69532;37.974;23.708;2023-05-13T14:48:06;6.43;;;2.95;;
80215;SDS011;69532;37.974;23.708;2023-05-13T14:50:31;7.85;;;3.03;;
80215;SDS011;69532;37.974;23.708;2023-05-13T14:52:57;6.97;;;2.90;;
80215;SDS011;69532;37.974;23.708;2023-05-13T14:55:23;6.38;;;2.67;;
80215;SDS011;69532;37.974;23.708;2023-05-13T14:57:49;5.88;;;2.70;;
80215;SDS011;69532;37.974;23.708;2023-05-13T15:00:15;6.28;;;3.08;;
80215;SDS011;69532;37.974;23.708;2023-05-13T15:02:41;6.78;;;3.08;;